createdAt,value
2017-12-16T00:00:23.977Z,2.20
2017-12-16T00:01:27.207Z,2.20
2017-12-16T00:02:30.425Z,2.20
2017-12-16T00:03:32.983Z,2.20
2017-12-16T00:04:36.246Z,2.20
2017-12-16T00:05:38.745Z,2.20
2017-12-16T00:06:42.090Z,2.30
2017-12-16T00:07:45.365Z,2.30
2017-12-16T00:08:48.462Z,2.30
2017-12-16T00:09:51.736Z,2.30
2017-12-16T00:10:54.212Z,2.30
2017-12-16T00:11:56.693Z,2.30
2017-12-16T00:12:59.180Z,2.30
2017-12-16T00:14:01.691Z,2.30
2017-12-16T00:15:04.193Z,2.30
2017-12-16T00:16:06.653Z,2.30
2017-12-16T00:17:09.137Z,2.30
2017-12-16T00:18:11.613Z,2.30
2017-12-16T00:19:14.868Z,2.30
2017-12-16T00:20:17.354Z,2.30
2017-12-16T00:21:19.949Z,2.30
2017-12-16T00:22:22.441Z,2.30
2017-12-16T00:23:25.653Z,2.30
2017-12-16T00:24:28.130Z,2.30
2017-12-16T00:25:30.593Z,2.30
2017-12-16T00:26:33.041Z,2.30
2017-12-16T00:27:36.307Z,2.30
2017-12-16T00:28:38.989Z,2.30
2017-12-16T00:29:41.489Z,2.30
2017-12-16T00:30:44.023Z,2.20
2017-12-16T00:31:46.487Z,2.20
2017-12-16T00:32:48.952Z,2.20
2017-12-16T00:33:51.433Z,2.20
2017-12-16T00:34:53.897Z,2.30
2017-12-16T00:35:56.408Z,2.20
2017-12-16T00:36:59.619Z,2.20
2017-12-16T00:38:02.115Z,2.20
2017-12-16T00:39:04.573Z,2.20
2017-12-16T00:40:07.070Z,2.30
2017-12-16T00:41:09.673Z,2.30
2017-12-16T00:42:12.228Z,2.30
2017-12-16T00:43:14.705Z,2.30
2017-12-16T00:44:17.190Z,2.30
2017-12-16T00:45:19.977Z,2.20
2017-12-16T00:46:22.485Z,2.20
2017-12-16T00:47:25.698Z,2.30
2017-12-16T00:48:28.191Z,2.30
2017-12-16T00:49:30.651Z,2.30
2017-12-16T00:50:33.120Z,2.30
2017-12-16T00:51:35.613Z,2.30
2017-12-16T00:52:38.154Z,2.20
2017-12-16T00:53:40.686Z,2.20
2017-12-16T00:54:43.166Z,2.20
2017-12-16T00:55:45.834Z,2.20
2017-12-16T00:56:48.447Z,2.20
2017-12-16T00:57:51.677Z,2.10
2017-12-16T00:58:54.165Z,2.10
2017-12-16T00:59:56.626Z,2.10
2017-12-16T01:00:59.096Z,2.20
2017-12-16T01:02:01.569Z,2.20
2017-12-16T01:03:04.037Z,2.20
2017-12-16T01:04:06.515Z,2.20
2017-12-16T01:05:08.985Z,2.20
2017-12-16T01:06:12.423Z,2.20
2017-12-16T01:07:15.751Z,2.20
2017-12-16T01:08:18.990Z,2.20
2017-12-16T01:09:21.459Z,2.20
2017-12-16T01:10:23.935Z,2.20
2017-12-16T01:11:27.167Z,2.10
2017-12-16T01:12:29.673Z,2.10
2017-12-16T01:13:32.126Z,2.10
2017-12-16T01:14:34.592Z,2.10
2017-12-16T01:15:37.061Z,2.10
2017-12-16T01:16:39.554Z,2.10
2017-12-16T01:17:42.048Z,2.10
2017-12-16T01:18:45.319Z,2.20
2017-12-16T01:19:47.861Z,2.10
2017-12-16T01:20:50.326Z,2.20
2017-12-16T01:21:53.603Z,2.30
2017-12-16T01:22:56.121Z,2.20
2017-12-16T01:23:58.648Z,2.20
2017-12-16T01:25:01.160Z,2.20
2017-12-16T01:26:04.432Z,2.20
2017-12-16T01:27:06.945Z,2.20
2017-12-16T01:28:09.441Z,2.20
2017-12-16T01:29:11.932Z,2.20
2017-12-16T01:30:15.165Z,2.20
2017-12-16T01:31:17.768Z,2.20
2017-12-16T01:32:20.294Z,2.20
2017-12-16T01:35:13.130Z,2.10
2017-12-16T01:36:27.626Z,2.20
2017-12-16T01:37:41.923Z,2.20
2017-12-16T01:38:44.378Z,2.20
2017-12-16T01:39:46.842Z,2.20
2017-12-16T01:40:49.311Z,2.30
2017-12-16T01:41:51.781Z,2.30
2017-12-16T01:42:54.282Z,2.30
2017-12-16T01:43:56.731Z,2.20
2017-12-16T01:44:59.237Z,2.30
2017-12-16T01:46:01.759Z,2.20
2017-12-16T01:47:04.243Z,2.30
2017-12-16T01:48:06.710Z,2.30
2017-12-16T01:49:09.322Z,2.30
2017-12-16T01:50:11.796Z,2.30
2017-12-16T01:51:14.278Z,2.30
2017-12-16T01:52:16.738Z,2.30
2017-12-16T01:53:19.206Z,2.30
2017-12-16T01:54:21.722Z,2.30
2017-12-16T01:55:24.199Z,2.20
2017-12-16T01:56:26.787Z,2.30
2017-12-16T01:57:29.274Z,2.30
2017-12-16T01:58:31.770Z,2.30
2017-12-16T01:59:34.230Z,2.30
2017-12-16T02:00:37.494Z,2.30
2017-12-16T02:01:40.036Z,2.30
2017-12-16T02:02:42.517Z,2.20
2017-12-16T02:03:44.977Z,2.20
2017-12-16T02:04:47.442Z,2.20
2017-12-16T02:05:49.994Z,2.20
2017-12-16T02:06:53.260Z,2.20
2017-12-16T02:07:55.783Z,2.20
2017-12-16T02:08:59.004Z,2.20
2017-12-16T02:10:02.275Z,2.20
2017-12-16T02:11:04.797Z,2.20
2017-12-16T02:12:07.301Z,2.20
2017-12-16T02:13:10.532Z,2.20
2017-12-16T02:14:13.019Z,2.20
2017-12-16T02:15:15.477Z,2.30
2017-12-16T02:16:17.992Z,2.20
2017-12-16T02:17:20.482Z,2.20
2017-12-16T02:18:22.991Z,2.20
2017-12-16T02:19:26.208Z,2.30
2017-12-16T02:20:29.433Z,2.30
2017-12-16T02:21:32.714Z,2.30
2017-12-16T02:22:35.247Z,2.30
2017-12-16T02:23:37.690Z,2.30
2017-12-16T02:24:40.208Z,2.30
2017-12-16T02:25:42.670Z,2.30
2017-12-16T02:26:45.165Z,2.20
2017-12-16T02:27:47.651Z,2.20
2017-12-16T02:28:50.912Z,2.30
2017-12-16T02:29:53.402Z,2.30
2017-12-16T02:30:55.870Z,2.30
2017-12-16T02:31:59.121Z,2.20
2017-12-16T02:33:01.611Z,2.20
2017-12-16T02:34:04.899Z,2.20
2017-12-16T02:35:07.364Z,2.20
2017-12-16T02:36:10.609Z,2.20
2017-12-16T02:37:13.159Z,2.20
2017-12-16T02:38:16.392Z,2.20
2017-12-16T02:39:19.638Z,2.20
2017-12-16T02:40:22.909Z,2.20
2017-12-16T02:41:25.414Z,2.20
2017-12-16T02:42:28.813Z,2.20
2017-12-16T02:43:31.353Z,2.20
2017-12-16T02:44:33.821Z,2.20
2017-12-16T02:45:36.317Z,2.20
2017-12-16T02:46:39.621Z,2.20
2017-12-16T02:47:42.214Z,2.20
2017-12-16T02:48:44.701Z,2.20
2017-12-16T02:49:47.218Z,2.20
2017-12-16T02:50:49.681Z,2.20
2017-12-16T02:51:52.159Z,2.20
2017-12-16T02:52:54.637Z,2.20
2017-12-16T02:53:57.157Z,2.20
2017-12-16T02:54:59.614Z,2.20
2017-12-16T02:56:02.212Z,2.20
2017-12-16T02:57:05.454Z,2.30
2017-12-16T02:58:07.926Z,2.30
2017-12-16T02:59:10.498Z,2.20
2017-12-16T03:00:13.772Z,2.30
2017-12-16T03:01:16.248Z,2.30
2017-12-16T03:02:19.469Z,2.30
2017-12-16T03:03:21.943Z,2.30
2017-12-16T03:04:24.399Z,2.30
2017-12-16T03:05:26.900Z,2.30
2017-12-16T03:06:29.361Z,2.30
2017-12-16T03:07:31.879Z,2.30
2017-12-16T03:08:34.338Z,2.20
2017-12-16T03:09:36.805Z,2.20
2017-12-16T03:10:39.274Z,2.20
2017-12-16T03:12:50.259Z,2.20
2017-12-16T03:13:52.752Z,2.20
2017-12-16T03:14:55.255Z,2.20
2017-12-16T03:15:57.709Z,2.10
2017-12-16T03:17:00.207Z,2.10
2017-12-16T03:18:02.689Z,2.10
2017-12-16T03:19:05.145Z,2.10
2017-12-16T03:20:07.609Z,2.10
2017-12-16T03:21:10.074Z,2.10
2017-12-16T03:22:12.537Z,2.10
2017-12-16T03:23:15.039Z,2.10
2017-12-16T03:24:18.293Z,2.10
2017-12-16T03:25:20.818Z,2.10
2017-12-16T03:26:23.283Z,2.10
2017-12-16T03:27:25.777Z,2.10
2017-12-16T03:28:28.253Z,2.10
2017-12-16T03:29:31.520Z,2.10
2017-12-16T03:30:34.746Z,2.20
2017-12-16T03:31:37.231Z,2.20
2017-12-16T03:32:39.706Z,2.20
2017-12-16T03:33:42.969Z,2.20
2017-12-16T03:34:46.197Z,2.10
2017-12-16T03:35:49.459Z,2.10
2017-12-16T03:36:51.914Z,2.10
2017-12-16T03:37:54.421Z,2.10
2017-12-16T03:38:56.889Z,2.10
2017-12-16T03:39:59.457Z,2.10
2017-12-16T03:41:01.970Z,2.10
2017-12-16T03:42:05.209Z,2.10
2017-12-16T03:43:08.592Z,2.10
2017-12-16T03:44:11.060Z,2.10
2017-12-16T03:45:14.300Z,2.10
2017-12-16T03:46:16.856Z,2.10
2017-12-16T03:47:19.353Z,2.10
2017-12-16T03:48:21.825Z,2.10
2017-12-16T03:49:24.304Z,2.10
2017-12-16T03:50:26.769Z,2.10
2017-12-16T03:51:29.267Z,2.10
2017-12-16T03:52:32.505Z,2.10
2017-12-16T03:53:34.961Z,2.10
2017-12-16T03:54:37.434Z,2.00
2017-12-16T03:55:40.685Z,2.00
2017-12-16T03:56:43.154Z,2.00
2017-12-16T03:57:45.645Z,2.00
2017-12-16T03:58:48.107Z,2.00
2017-12-16T03:59:50.624Z,2.00
2017-12-16T04:00:53.832Z,2.00
2017-12-16T04:01:57.154Z,2.00
2017-12-16T04:02:59.607Z,2.00
2017-12-16T04:04:02.060Z,2.00
2017-12-16T04:05:04.538Z,2.00
2017-12-16T04:06:07.105Z,2.00
2017-12-16T04:07:09.566Z,2.00
2017-12-16T04:08:12.036Z,2.10
2017-12-16T04:09:14.494Z,2.10
2017-12-16T04:10:17.038Z,2.10
2017-12-16T04:11:20.127Z,2.10
2017-12-16T04:12:23.358Z,2.20
2017-12-16T04:13:25.822Z,2.20
2017-12-16T04:14:28.284Z,2.10
2017-12-16T04:15:30.773Z,2.10
2017-12-16T04:16:33.241Z,2.10
2017-12-16T04:17:36.468Z,2.10
2017-12-16T04:18:38.932Z,2.10
2017-12-16T04:19:41.385Z,2.10
2017-12-16T04:20:43.870Z,2.10
2017-12-16T04:21:46.332Z,2.10
2017-12-16T04:22:48.801Z,2.10
2017-12-16T04:23:51.269Z,2.10
2017-12-16T04:24:54.533Z,2.10
2017-12-16T04:25:57.007Z,2.10
2017-12-16T04:26:59.478Z,2.10
2017-12-16T04:28:01.945Z,2.10
2017-12-16T04:29:04.419Z,2.10
2017-12-16T04:30:06.870Z,2.10
2017-12-16T04:31:09.324Z,2.10
2017-12-16T04:32:11.890Z,2.10
2017-12-16T04:33:15.154Z,2.00
2017-12-16T04:34:17.619Z,2.00
2017-12-16T04:35:20.830Z,2.00
2017-12-16T04:36:23.283Z,2.00
2017-12-16T04:37:25.753Z,2.00
2017-12-16T04:38:28.218Z,2.00
2017-12-16T04:39:30.675Z,2.00
2017-12-16T04:40:34.035Z,2.00
2017-12-16T04:41:37.250Z,2.00
2017-12-16T04:42:39.718Z,1.90
2017-12-16T04:43:42.177Z,1.90
2017-12-16T04:44:44.636Z,1.90
2017-12-16T04:45:47.901Z,1.90
2017-12-16T04:46:50.362Z,1.90
2017-12-16T04:47:52.825Z,2.00
2017-12-16T04:48:56.076Z,2.00
2017-12-16T04:49:59.317Z,2.00
2017-12-16T04:51:02.547Z,2.10
2017-12-16T04:52:05.018Z,2.10
2017-12-16T04:53:07.485Z,2.10
2017-12-16T04:54:09.999Z,2.10
2017-12-16T04:55:12.465Z,2.10
2017-12-16T04:56:15.714Z,2.10
2017-12-16T04:57:18.954Z,2.10
2017-12-16T04:58:22.205Z,2.10
2017-12-16T04:59:25.438Z,2.10
2017-12-16T05:00:28.670Z,2.00
2017-12-16T05:01:31.120Z,2.00
2017-12-16T05:02:33.644Z,2.10
2017-12-16T05:03:36.161Z,2.00
2017-12-16T05:04:38.633Z,2.00
2017-12-16T05:05:41.093Z,2.00
2017-12-16T05:06:43.608Z,2.00
2017-12-16T05:07:46.069Z,2.00
2017-12-16T05:08:48.533Z,2.00
2017-12-16T05:09:51.126Z,2.10
2017-12-16T05:10:53.613Z,2.10
2017-12-16T05:11:56.081Z,2.10
2017-12-16T05:12:58.550Z,2.10
2017-12-16T05:14:01.820Z,2.10
2017-12-16T05:15:05.065Z,2.10
2017-12-16T05:16:08.298Z,2.10
2017-12-16T05:17:10.762Z,2.10
2017-12-16T05:18:13.227Z,2.10
2017-12-16T05:19:15.748Z,2.10
2017-12-16T05:20:18.241Z,2.10
2017-12-16T05:21:20.691Z,2.10
2017-12-16T05:22:23.169Z,2.20
2017-12-16T05:23:25.653Z,2.10
2017-12-16T05:24:28.167Z,2.10
2017-12-16T05:25:31.430Z,2.10
2017-12-16T05:26:33.915Z,2.10
2017-12-16T05:27:36.382Z,2.10
2017-12-16T05:28:38.861Z,2.10
2017-12-16T05:29:41.329Z,2.10
2017-12-16T05:30:43.818Z,2.10
2017-12-16T05:31:46.286Z,2.20
2017-12-16T05:32:49.535Z,2.20
2017-12-16T05:33:52.837Z,2.20
2017-12-16T05:34:55.297Z,2.20
2017-12-16T05:35:58.585Z,2.20
2017-12-16T05:37:01.079Z,2.20
2017-12-16T05:38:04.329Z,2.20
2017-12-16T05:39:06.796Z,2.20
2017-12-16T05:40:09.258Z,2.20
2017-12-16T05:41:12.520Z,2.20
2017-12-16T05:42:15.008Z,2.20
2017-12-16T05:43:17.472Z,2.20
2017-12-16T05:44:19.941Z,2.20
2017-12-16T05:45:22.400Z,2.20
2017-12-16T05:46:25.665Z,2.20
2017-12-16T05:47:28.165Z,2.20
2017-12-16T05:48:31.400Z,2.20
2017-12-16T05:49:33.969Z,2.20
2017-12-16T05:50:37.197Z,2.20
2017-12-16T05:51:39.650Z,2.20
2017-12-16T05:52:42.152Z,2.30
2017-12-16T05:53:45.393Z,2.30
2017-12-16T05:54:47.863Z,2.30
2017-12-16T05:55:50.341Z,2.30
2017-12-16T05:56:52.802Z,2.30
2017-12-16T05:57:55.259Z,2.30
2017-12-16T05:58:57.812Z,2.30
2017-12-16T06:00:01.025Z,2.30
2017-12-16T06:01:04.258Z,2.30
2017-12-16T06:02:06.749Z,2.30
2017-12-16T06:03:09.210Z,2.30
2017-12-16T06:04:11.721Z,2.30
2017-12-16T06:05:14.218Z,2.30
2017-12-16T06:06:16.744Z,2.30
2017-12-16T06:07:19.258Z,2.30
2017-12-16T06:08:21.721Z,2.20
2017-12-16T06:09:24.214Z,2.20
2017-12-16T06:10:26.699Z,2.30
2017-12-16T06:11:29.929Z,2.20
2017-12-16T06:12:32.397Z,2.20
2017-12-16T06:13:34.882Z,2.20
2017-12-16T06:14:37.345Z,2.20
2017-12-16T06:15:39.838Z,2.20
2017-12-16T06:16:42.296Z,2.20
2017-12-16T06:17:44.756Z,2.30
2017-12-16T06:18:47.218Z,2.20
2017-12-16T06:19:49.676Z,2.30
2017-12-16T06:20:52.160Z,2.30
2017-12-16T06:21:54.671Z,2.30
2017-12-16T06:22:57.119Z,2.30
2017-12-16T06:24:00.366Z,2.30
2017-12-16T06:25:03.607Z,2.30
2017-12-16T06:26:06.875Z,2.30
2017-12-16T06:27:09.385Z,2.30
2017-12-16T06:28:11.841Z,2.30
2017-12-16T06:29:14.321Z,2.30
2017-12-16T06:30:16.801Z,2.30
2017-12-16T06:31:19.408Z,2.20
2017-12-16T06:32:21.981Z,2.20
2017-12-16T06:33:24.447Z,2.20
2017-12-16T06:34:26.918Z,2.20
2017-12-16T06:35:29.373Z,2.30
2017-12-16T06:36:32.648Z,2.30
2017-12-16T06:37:35.120Z,2.20
2017-12-16T06:38:37.589Z,2.20
2017-12-16T06:39:40.061Z,2.20
2017-12-16T06:40:42.555Z,2.30
2017-12-16T06:41:45.010Z,2.30
2017-12-16T06:42:47.487Z,2.30
2017-12-16T06:43:49.944Z,2.30
2017-12-16T06:44:52.414Z,2.20
2017-12-16T06:45:54.921Z,2.30
2017-12-16T06:46:57.388Z,2.30
2017-12-16T06:47:59.902Z,2.30
2017-12-16T06:49:03.122Z,2.30
2017-12-16T06:50:05.627Z,2.30
2017-12-16T06:51:08.085Z,2.30
2017-12-16T06:52:11.454Z,2.30
2017-12-16T06:53:14.003Z,2.30
2017-12-16T06:54:16.477Z,2.30
2017-12-16T06:55:19.446Z,2.30
2017-12-16T06:56:21.990Z,2.30
2017-12-16T06:57:24.443Z,2.30
2017-12-16T06:58:28.444Z,2.30
2017-12-16T06:59:30.908Z,2.30
2017-12-16T07:00:33.373Z,2.30
2017-12-16T07:01:35.842Z,2.30
2017-12-16T07:02:38.308Z,2.30
2017-12-16T07:03:40.797Z,2.30
2017-12-16T07:04:43.293Z,2.30
2017-12-16T07:05:45.790Z,2.30
2017-12-16T07:06:49.045Z,2.30
2017-12-16T07:07:52.261Z,2.30
2017-12-16T07:08:54.720Z,2.30
2017-12-16T07:09:57.969Z,2.30
2017-12-16T07:11:00.482Z,2.30
2017-12-16T07:12:03.744Z,2.30
2017-12-16T07:13:06.219Z,2.30
2017-12-16T07:14:10.223Z,2.30
2017-12-16T07:15:12.701Z,2.30
2017-12-16T07:16:15.164Z,2.40
2017-12-16T07:17:18.422Z,2.30
2017-12-16T07:18:20.889Z,2.30
2017-12-16T07:19:23.375Z,2.30
2017-12-16T07:20:25.870Z,2.30
2017-12-16T07:21:29.102Z,2.30
2017-12-16T07:22:31.573Z,2.20
2017-12-16T07:23:34.029Z,2.20
2017-12-16T07:24:36.501Z,2.20
2017-12-16T07:25:39.010Z,2.30
2017-12-16T07:26:41.465Z,2.30
2017-12-16T07:27:43.990Z,2.20
2017-12-16T07:28:46.470Z,2.20
2017-12-16T07:29:49.029Z,2.20
2017-12-16T07:30:51.510Z,2.20
2017-12-16T07:31:54.087Z,2.20
2017-12-16T07:32:57.307Z,2.20
2017-12-16T07:34:00.526Z,2.20
2017-12-16T07:35:03.781Z,2.20
2017-12-16T07:36:06.300Z,2.20
2017-12-16T07:37:08.749Z,2.20
2017-12-16T07:38:11.991Z,2.20
2017-12-16T07:39:15.202Z,2.20
2017-12-16T07:40:17.779Z,2.20
2017-12-16T07:41:20.284Z,2.20
2017-12-16T07:42:23.568Z,2.20
2017-12-16T07:43:26.046Z,2.20
2017-12-16T07:44:29.272Z,2.20
2017-12-16T07:45:31.826Z,2.20
2017-12-16T07:46:34.330Z,2.20
2017-12-16T07:47:37.561Z,2.20
2017-12-16T07:48:40.089Z,2.20
2017-12-16T07:49:42.667Z,2.30
2017-12-16T07:50:45.151Z,2.30
2017-12-16T07:51:47.647Z,2.20
2017-12-16T07:52:50.112Z,2.20
2017-12-16T07:53:53.378Z,2.20
2017-12-16T07:54:55.857Z,2.20
2017-12-16T07:55:58.372Z,2.20
2017-12-16T07:57:00.835Z,2.30
2017-12-16T07:58:04.076Z,2.30
2017-12-16T07:59:07.337Z,2.30
2017-12-16T08:00:09.801Z,2.30
2017-12-16T08:01:12.269Z,2.30
2017-12-16T08:02:15.526Z,2.30
2017-12-16T08:03:18.045Z,2.30
2017-12-16T08:04:21.285Z,2.30
2017-12-16T08:05:23.782Z,2.30
2017-12-16T08:06:26.251Z,2.30
2017-12-16T08:07:28.774Z,2.30
2017-12-16T08:08:31.299Z,2.20
2017-12-16T08:09:33.786Z,2.20
2017-12-16T08:10:36.673Z,2.20
2017-12-16T08:11:39.157Z,2.20
2017-12-16T08:12:42.399Z,2.00
2017-12-16T08:13:45.685Z,2.00
2017-12-16T08:14:48.141Z,2.00
2017-12-16T08:15:50.634Z,2.00
2017-12-16T08:16:53.114Z,2.00
2017-12-16T08:17:56.348Z,1.90
2017-12-16T08:18:58.834Z,1.90
2017-12-16T08:20:01.299Z,2.00
2017-12-16T08:21:04.547Z,1.90
2017-12-16T08:22:07.778Z,1.90
2017-12-16T08:23:10.258Z,1.90
2017-12-16T08:24:12.713Z,1.90
2017-12-16T08:25:15.196Z,1.90
2017-12-16T08:26:17.706Z,1.90
2017-12-16T08:27:21.357Z,1.80
2017-12-16T08:28:24.558Z,1.90
2017-12-16T08:29:28.548Z,1.90
2017-12-16T08:30:31.794Z,1.90
2017-12-16T08:31:35.063Z,1.90
2017-12-16T08:32:37.538Z,1.90
2017-12-16T08:33:40.804Z,2.00
2017-12-16T08:34:44.109Z,2.00
2017-12-16T08:35:46.584Z,2.00
2017-12-16T08:36:49.122Z,2.10
2017-12-16T08:37:51.607Z,2.20
2017-12-16T08:38:54.838Z,2.40
2017-12-16T08:39:57.389Z,2.40
2017-12-16T08:41:00.613Z,2.40
2017-12-16T08:42:03.142Z,2.40
2017-12-16T08:43:05.635Z,2.40
2017-12-16T08:44:08.118Z,2.40
2017-12-16T08:45:10.657Z,2.40
2017-12-16T08:46:13.154Z,2.40
2017-12-16T08:47:16.466Z,2.40
2017-12-16T08:48:18.918Z,2.40
2017-12-16T08:49:22.145Z,2.40
2017-12-16T08:50:24.647Z,2.40
2017-12-16T08:51:27.126Z,2.40
2017-12-16T08:52:29.660Z,2.40
2017-12-16T08:53:32.119Z,2.50
2017-12-16T08:54:34.586Z,2.40
2017-12-16T08:55:37.843Z,2.50
2017-12-16T08:56:41.101Z,2.50
2017-12-16T08:57:43.637Z,2.50
2017-12-16T08:58:46.155Z,2.50
2017-12-16T08:59:48.889Z,2.50
2017-12-16T09:00:51.345Z,2.50
2017-12-16T09:01:53.861Z,2.40
2017-12-16T09:02:56.316Z,2.50
2017-12-16T09:03:59.705Z,2.40
2017-12-16T09:05:02.222Z,2.40
2017-12-16T09:06:04.747Z,2.40
2017-12-16T09:07:07.271Z,2.40
2017-12-16T09:08:09.833Z,2.40
2017-12-16T09:09:12.341Z,2.40
2017-12-16T09:10:14.878Z,2.40
2017-12-16T09:11:17.343Z,2.40
2017-12-16T09:12:19.827Z,2.40
2017-12-16T09:13:22.346Z,2.40
2017-12-16T09:14:25.624Z,2.40
2017-12-16T09:15:28.862Z,2.40
2017-12-16T09:16:31.322Z,2.40
2017-12-16T09:17:34.593Z,2.50
2017-12-16T09:18:37.069Z,2.50
2017-12-16T09:19:39.722Z,2.60
2017-12-16T09:20:43.018Z,2.60
2017-12-16T09:21:46.338Z,2.60
2017-12-16T09:22:48.819Z,2.60
2017-12-16T09:23:51.484Z,2.60
2017-12-16T09:24:53.959Z,2.70
2017-12-16T09:25:57.261Z,2.80
2017-12-16T09:26:59.740Z,2.70
2017-12-16T09:28:02.248Z,2.80
2017-12-16T09:29:04.777Z,2.70
2017-12-16T09:30:08.058Z,2.60
2017-12-16T09:31:10.549Z,2.70
2017-12-16T09:32:13.004Z,2.60
2017-12-16T09:33:15.672Z,2.60
2017-12-16T09:34:18.141Z,2.60
2017-12-16T09:35:21.379Z,2.60
2017-12-16T09:36:23.878Z,2.60
2017-12-16T09:37:26.340Z,2.70
2017-12-16T09:38:29.700Z,2.70
2017-12-16T09:39:32.173Z,2.70
2017-12-16T09:40:35.231Z,2.70
2017-12-16T09:41:37.729Z,2.70
2017-12-16T09:42:40.204Z,2.80
2017-12-16T09:43:43.521Z,2.90
2017-12-16T09:44:45.993Z,2.90
2017-12-16T09:45:48.517Z,2.90
2017-12-16T09:46:51.138Z,3.00
2017-12-16T09:47:53.621Z,3.00
2017-12-16T09:48:56.833Z,3.10
2017-12-16T09:49:59.297Z,3.10
2017-12-16T09:51:01.762Z,3.20
2017-12-16T09:52:04.268Z,3.20
2017-12-16T09:53:07.506Z,3.20
2017-12-16T09:54:10.758Z,3.20
2017-12-16T09:55:13.230Z,3.20
2017-12-16T09:56:15.702Z,3.20
2017-12-16T09:57:18.955Z,3.20
2017-12-16T09:58:21.429Z,3.20
2017-12-16T09:59:25.418Z,3.10
2017-12-16T10:00:28.651Z,3.10
2017-12-16T10:01:31.106Z,3.10
2017-12-16T10:02:33.581Z,3.10
2017-12-16T10:03:36.054Z,3.20
2017-12-16T10:04:38.525Z,3.20
2017-12-16T10:05:41.120Z,3.20
2017-12-16T10:06:43.588Z,3.20
2017-12-16T10:07:46.169Z,3.20
2017-12-16T10:08:48.634Z,3.20
2017-12-16T10:09:51.869Z,3.30
2017-12-16T10:10:54.324Z,3.30
2017-12-16T10:11:56.781Z,3.30
2017-12-16T10:12:59.260Z,3.40
2017-12-16T10:14:01.721Z,3.40
2017-12-16T10:15:04.211Z,3.40
2017-12-16T10:16:08.187Z,3.40
2017-12-16T10:17:11.421Z,3.40
2017-12-16T10:18:14.695Z,3.40
2017-12-16T10:19:17.217Z,3.40
2017-12-16T10:20:19.739Z,3.40
2017-12-16T10:21:22.196Z,3.40
2017-12-16T10:22:24.697Z,3.40
2017-12-16T10:23:27.267Z,3.40
2017-12-16T10:24:29.785Z,3.40
2017-12-16T10:25:32.245Z,3.40
2017-12-16T10:26:35.482Z,3.40
2017-12-16T10:27:38.761Z,3.40
2017-12-16T10:28:42.005Z,3.40
2017-12-16T10:29:44.484Z,3.40
2017-12-16T10:30:46.949Z,3.40
2017-12-16T10:31:49.425Z,3.40
2017-12-16T10:32:51.910Z,3.40
2017-12-16T10:33:54.448Z,3.40
2017-12-16T10:34:56.957Z,3.30
2017-12-16T10:35:59.438Z,3.40
2017-12-16T10:37:02.019Z,3.30
2017-12-16T10:38:04.530Z,3.30
2017-12-16T10:39:07.002Z,3.30
2017-12-16T10:40:09.475Z,3.30
2017-12-16T10:41:12.006Z,3.30
2017-12-16T10:42:15.257Z,3.30
2017-12-16T10:43:17.721Z,3.30
2017-12-16T10:44:20.194Z,3.30
2017-12-16T10:45:22.699Z,3.30
2017-12-16T10:46:25.171Z,3.30
2017-12-16T10:47:27.643Z,3.30
2017-12-16T10:48:30.101Z,3.30
2017-12-16T10:49:32.557Z,3.20
2017-12-16T10:50:35.042Z,3.20
2017-12-16T10:51:38.321Z,3.20
2017-12-16T10:52:40.790Z,3.20
2017-12-16T10:53:44.051Z,3.30
2017-12-16T10:54:46.530Z,3.30
2017-12-16T10:55:49.004Z,3.30
2017-12-16T10:56:51.509Z,3.30
2017-12-16T10:57:54.737Z,3.30
2017-12-16T10:58:57.210Z,3.30
2017-12-16T10:59:59.688Z,3.20
2017-12-16T11:01:02.175Z,3.20
2017-12-16T11:02:04.959Z,3.20
2017-12-16T11:03:07.438Z,3.20
2017-12-16T11:04:09.930Z,3.10
2017-12-16T11:05:12.402Z,3.10
2017-12-16T11:06:14.853Z,3.10
2017-12-16T11:07:18.122Z,3.00
2017-12-16T11:08:20.610Z,3.00
2017-12-16T11:09:23.067Z,3.00
2017-12-16T11:10:25.542Z,3.00
2017-12-16T11:11:28.006Z,3.00
2017-12-16T11:12:31.269Z,2.90
2017-12-16T11:13:33.815Z,2.90
2017-12-16T11:14:36.987Z,2.90
2017-12-16T11:15:39.793Z,2.80
2017-12-16T11:16:42.256Z,2.90
2017-12-16T11:17:45.503Z,2.80
2017-12-16T11:18:48.063Z,2.80
2017-12-16T11:19:50.514Z,2.80
2017-12-16T11:20:52.994Z,2.80
2017-12-16T11:21:56.231Z,2.80
2017-12-16T11:22:59.502Z,2.80
2017-12-16T11:24:01.984Z,2.80
2017-12-16T11:25:05.425Z,2.80
2017-12-16T11:26:07.997Z,2.70
2017-12-16T11:27:10.479Z,2.70
2017-12-16T11:28:12.952Z,2.70
2017-12-16T11:29:15.438Z,2.70
2017-12-16T11:30:17.894Z,2.70
2017-12-16T11:31:20.392Z,2.70
2017-12-16T11:32:23.651Z,2.80
2017-12-16T11:33:26.106Z,2.80
2017-12-16T11:34:28.573Z,2.80
2017-12-16T11:35:31.818Z,2.80
2017-12-16T11:36:34.281Z,2.80
2017-12-16T11:37:36.780Z,2.80
2017-12-16T11:38:40.018Z,2.80
2017-12-16T11:39:43.283Z,2.80
2017-12-16T11:40:46.520Z,2.80
2017-12-16T11:41:49.041Z,2.80
2017-12-16T11:42:52.281Z,2.80
2017-12-16T11:43:55.515Z,2.80
2017-12-16T11:44:58.745Z,2.80
2017-12-16T11:46:01.206Z,2.80
2017-12-16T11:47:03.727Z,2.80
2017-12-16T11:48:06.251Z,2.90
2017-12-16T11:49:08.707Z,2.80
2017-12-16T11:50:11.166Z,2.90
2017-12-16T11:51:14.403Z,2.90
2017-12-16T11:52:16.962Z,2.90
2017-12-16T11:53:20.181Z,2.80
2017-12-16T11:54:22.736Z,2.80
2017-12-16T11:55:25.198Z,2.80
2017-12-16T11:56:27.686Z,2.80
2017-12-16T11:57:30.155Z,2.80
2017-12-16T11:58:33.266Z,2.80
2017-12-16T11:59:35.747Z,2.80
2017-12-16T12:00:38.267Z,2.80
2017-12-16T12:01:41.521Z,2.70
2017-12-16T12:02:44.762Z,2.70
2017-12-16T12:03:47.308Z,2.70
2017-12-16T12:04:50.535Z,2.70
2017-12-16T12:05:53.775Z,2.80
2017-12-16T12:06:56.230Z,2.70
2017-12-16T12:07:58.710Z,2.80
2017-12-16T12:09:01.214Z,2.80
2017-12-16T12:10:03.713Z,2.80
2017-12-16T12:11:06.174Z,2.80
2017-12-16T12:12:08.637Z,2.70
2017-12-16T12:13:11.886Z,2.80
2017-12-16T12:14:14.371Z,2.70
2017-12-16T12:15:16.832Z,2.70
2017-12-16T12:16:19.313Z,2.80
2017-12-16T12:17:21.779Z,2.70
2017-12-16T12:18:25.010Z,2.80
2017-12-16T12:19:28.237Z,2.80
2017-12-16T12:20:30.697Z,2.80
2017-12-16T12:21:33.182Z,2.80
2017-12-16T12:22:35.741Z,2.80
2017-12-16T12:23:38.205Z,2.90
2017-12-16T12:24:40.696Z,2.80
2017-12-16T12:25:43.221Z,2.90
2017-12-16T12:26:45.706Z,2.90
2017-12-16T12:27:48.176Z,2.90
2017-12-16T12:28:51.610Z,2.90
2017-12-16T12:29:54.844Z,2.80
2017-12-16T12:30:58.087Z,2.80
2017-12-16T12:32:01.350Z,2.80
2017-12-16T12:33:03.850Z,2.80
2017-12-16T12:34:07.073Z,2.80
2017-12-16T12:35:09.634Z,2.80
2017-12-16T12:36:12.104Z,2.80
2017-12-16T12:37:14.588Z,2.80
2017-12-16T12:38:17.825Z,2.70
2017-12-16T12:39:21.090Z,2.80
2017-12-16T12:40:23.556Z,2.80
2017-12-16T12:41:26.620Z,2.80
2017-12-16T12:42:29.854Z,2.80
2017-12-16T12:43:32.309Z,2.80
2017-12-16T12:44:34.810Z,2.80
2017-12-16T12:45:38.067Z,2.80
2017-12-16T12:46:41.309Z,2.90
2017-12-16T12:47:43.773Z,2.90
2017-12-16T12:48:46.246Z,2.90
2017-12-16T12:49:49.535Z,2.90
2017-12-16T12:50:52.055Z,2.90
2017-12-16T12:51:54.574Z,2.90
2017-12-16T12:52:57.061Z,2.90
2017-12-16T12:54:00.300Z,2.90
2017-12-16T12:55:03.570Z,2.90
2017-12-16T12:56:06.049Z,2.90
2017-12-16T12:57:08.525Z,2.90
2017-12-16T12:58:11.036Z,2.90
2017-12-16T12:59:13.532Z,3.00
2017-12-16T13:00:15.997Z,2.90
2017-12-16T13:01:18.478Z,3.00
2017-12-16T13:02:21.045Z,3.00
2017-12-16T13:03:23.514Z,3.00
2017-12-16T13:04:26.011Z,3.00
2017-12-16T13:05:28.474Z,3.00
2017-12-16T13:06:30.938Z,3.00
2017-12-16T13:07:34.178Z,2.90
2017-12-16T13:08:36.694Z,2.90
2017-12-16T13:09:39.953Z,2.90
2017-12-16T13:10:42.478Z,2.90
2017-12-16T13:11:45.086Z,3.00
2017-12-16T13:12:48.346Z,3.00
2017-12-16T13:13:50.862Z,3.00
2017-12-16T13:14:54.138Z,2.90
2017-12-16T13:15:56.598Z,2.90
2017-12-16T13:16:59.255Z,2.90
2017-12-16T13:18:02.509Z,2.90
2017-12-16T13:19:05.765Z,2.90
2017-12-16T13:20:08.281Z,2.90
2017-12-16T13:21:10.817Z,2.90
2017-12-16T13:22:13.337Z,2.90
2017-12-16T13:23:15.798Z,2.90
2017-12-16T13:24:18.304Z,2.90
2017-12-16T13:25:20.866Z,2.80
2017-12-16T13:26:24.885Z,2.80
2017-12-16T13:27:27.358Z,2.80
2017-12-16T13:28:29.841Z,2.80
2017-12-16T13:29:32.378Z,2.80
2017-12-16T13:30:34.842Z,2.80
2017-12-16T13:31:38.083Z,2.90
2017-12-16T13:32:40.552Z,2.90
2017-12-16T13:33:43.113Z,2.90
2017-12-16T13:34:45.570Z,2.80
2017-12-16T13:35:48.793Z,2.80
2017-12-16T13:36:51.268Z,2.80
2017-12-16T13:37:53.746Z,2.80
2017-12-16T13:38:56.242Z,2.80
2017-12-16T13:39:58.715Z,2.80
2017-12-16T13:41:01.954Z,2.80
2017-12-16T13:42:05.185Z,2.80
2017-12-16T13:43:07.717Z,2.80
2017-12-16T13:44:10.936Z,2.80
2017-12-16T13:45:14.175Z,2.80
2017-12-16T13:46:16.637Z,2.80
2017-12-16T13:47:19.873Z,2.70
2017-12-16T13:48:23.172Z,2.80
2017-12-16T13:49:25.630Z,2.80
2017-12-16T13:50:28.133Z,2.70
2017-12-16T13:51:30.593Z,2.70
2017-12-16T13:52:33.839Z,2.80
2017-12-16T13:53:37.091Z,2.80
2017-12-16T13:54:39.541Z,2.80
2017-12-16T13:55:42.051Z,2.80
2017-12-16T13:56:44.556Z,2.80
2017-12-16T13:57:47.810Z,2.80